createdAt,value
2022-11-18T08:51:44.541Z,100.00
2022-11-18T08:54:52.857Z,100.00
2022-11-18T09:52:37.394Z,100.00
2022-11-18T09:55:47.155Z,100.00
2022-11-18T09:59:12.024Z,100.00
2022-11-18T10:03:32.024Z,100.00
2022-11-18T10:07:05.500Z,100.00
2022-11-18T10:18:59.042Z,96.68
2022-11-18T10:25:20.424Z,99.08
2022-11-18T10:32:25.122Z,97.48
2022-11-18T10:43:43.432Z,96.69
2022-11-18T10:47:12.835Z,97.38
2022-11-18T10:49:45.318Z,98.17
2022-11-18T10:52:19.867Z,98.61
2022-11-18T10:55:27.673Z,98.93
2022-11-18T10:57:59.690Z,98.30
2022-11-18T11:00:53.165Z,98.47
2022-11-18T11:03:38.481Z,97.24
2022-11-18T11:06:43.247Z,97.24
2022-11-18T11:12:19.734Z,97.10
2022-11-18T11:14:52.309Z,97.22
2022-11-18T11:17:30.452Z,97.32
2022-11-18T11:20:05.788Z,98.19
2022-11-18T11:22:34.475Z,98.11
2022-11-18T11:25:20.440Z,98.92
2022-11-18T11:31:14.166Z,97.14
2022-11-18T11:33:54.876Z,97.06
2022-11-18T11:36:42.644Z,97.76
2022-11-18T11:39:52.982Z,96.54
2022-11-18T11:42:37.649Z,97.14
2022-11-18T11:45:33.779Z,98.69
2022-11-18T11:50:31.099Z,98.60
2022-11-18T11:52:24.231Z,98.49
2022-11-18T11:55:16.359Z,97.50
2022-11-18T11:58:14.200Z,97.50
2022-11-18T12:00:57.094Z,97.74
2022-11-18T12:04:29.513Z,98.77
2022-11-18T12:07:59.020Z,98.88
2022-11-18T12:19:20.474Z,97.24
2022-11-18T12:28:23.534Z,94.24
2022-11-18T12:41:00.841Z,95.63
2022-11-18T12:44:09.760Z,97.70
2022-11-18T12:46:56.295Z,96.80
2022-11-18T12:50:13.357Z,97.54
2022-11-18T12:52:54.868Z,95.77
2022-11-18T12:55:30.070Z,96.49
2022-11-18T12:57:58.042Z,96.81
2022-11-18T13:00:32.608Z,96.17
2022-11-18T13:03:03.409Z,97.22
2022-11-18T13:05:33.304Z,98.05
2022-11-18T13:08:17.163Z,97.11
2022-11-18T13:10:53.177Z,96.86
2022-11-18T13:13:35.823Z,97.05
2022-11-18T13:20:58.299Z,96.56
2022-11-18T13:23:50.024Z,96.71
2022-11-18T13:26:21.197Z,96.41
2022-11-18T13:29:02.355Z,97.17
2022-11-18T13:31:34.726Z,96.50
2022-11-18T13:34:03.978Z,96.61
2022-11-18T13:36:33.747Z,96.23
2022-11-18T13:42:00.058Z,96.55
2022-11-18T13:44:30.174Z,95.98
2022-11-18T13:47:05.919Z,96.66
2022-11-18T13:49:49.944Z,97.18
2022-11-18T13:52:26.093Z,97.25
2022-11-18T13:54:55.240Z,97.99
2022-11-18T13:57:26.329Z,97.06
2022-11-18T13:59:57.722Z,97.60
2022-11-18T14:02:30.772Z,98.50
2022-11-18T14:05:00.284Z,98.60
2022-11-18T14:07:32.806Z,98.60
2022-11-18T14:10:02.839Z,98.42
2022-11-18T14:12:34.658Z,98.25
2022-11-18T14:15:24.383Z,98.07
2022-11-18T14:17:55.232Z,98.79
2022-11-18T14:20:25.262Z,97.37
2022-11-18T14:23:14.958Z,98.67
2022-11-18T14:25:45.136Z,99.41
2022-11-18T14:28:22.530Z,98.38
2022-11-18T14:30:59.716Z,99.23
2022-11-18T14:33:29.536Z,98.75
2022-11-18T14:35:59.998Z,99.19
2022-11-18T14:38:57.608Z,98.76
2022-11-18T14:41:50.575Z,99.48
2022-11-18T14:44:19.591Z,98.49
